Time;durP1;ratioP1;P1;durP2;ratioP2;P2;SDS_P1;SDS_P2;PMS_P1;PMS_P2;Temp;Humidity;BMP_temperature;BMP_pressure;BME280_temperature;BME280_humidity;BME280_pressure;Samples;Min_cycle;Max_cycle;Signal;HPM_P1;HPM_P2
2022/12/21 00:02:11;;;;;;;58.20;27.82;;;;;;;1.14;89.40;100305.11;1710711;83;25958;-53
2022/12/21 00:04:37;;;;;;;57.78;26.60;;;;;;;1.13;89.42;100304.05;1710854;83;25541;-53
2022/12/21 00:07:04;;;;;;;58.33;26.73;;;;;;;1.11;89.45;100304.30;1710842;83;25691;-52
2022/12/21 00:09:30;;;;;;;54.83;27.70;;;;;;;1.08;89.52;100298.92;1710872;83;25545;-52
2022/12/21 00:11:56;;;;;;;52.83;26.20;;;;;;;1.06;89.48;100306.89;1710823;83;27484;-52
2022/12/21 00:14:22;;;;;;;52.38;26.85;;;;;;;1.03;89.50;100315.36;1686101;83;25649;-51
2022/12/21 00:16:50;;;;;;;56.00;27.77;;;;;;;1.02;89.52;100311.91;1710869;83;25593;-54
2022/12/21 00:19:17;;;;;;;51.23;26.97;;;;;;;1.00;89.50;100303.86;1710753;83;25702;-54
2022/12/21 00:21:43;;;;;;;52.25;27.52;;;;;;;0.98;89.49;100299.31;1710789;83;25382;-51
2022/12/21 00:24:09;;;;;;;58.33;27.73;;;;;;;0.95;89.47;100297.13;1710798;83;27436;-53
2022/12/21 00:26:39;;;;;;;62.10;28.73;;;;;;;0.93;89.47;100296.84;1710691;83;25587;-55
2022/12/21 00:29:06;;;;;;;56.18;27.77;;;;;;;0.92;89.45;100293.91;1710969;83;25581;-54
2022/12/21 00:31:38;;;;;;;57.05;26.97;;;;;;;0.90;89.45;100299.19;1710776;83;26281;-53
2022/12/21 00:34:05;;;;;;;58.52;27.80;;;;;;;0.87;89.45;100285.84;1710900;83;25585;-52
2022/12/21 00:36:33;;;;;;;54.25;26.48;;;;;;;0.86;89.43;100288.22;1710766;83;27357;-52
2022/12/21 00:39:01;;;;;;;56.20;26.55;;;;;;;0.85;89.46;100287.95;1710724;83;25457;-51
2022/12/21 00:41:28;;;;;;;56.10;26.52;;;;;;;0.85;89.38;100289.79;1710773;83;25678;-51
2022/12/21 00:43:56;;;;;;;54.10;26.00;;;;;;;0.84;89.39;100290.86;1710765;83;26389;-52
2022/12/21 00:46:30;;;;;;;54.85;27.75;;;;;;;0.82;89.41;100291.61;1710834;83;25504;-51
2022/12/21 00:49:04;;;;;;;56.30;26.50;;;;;;;0.82;89.44;100281.78;1710344;83;27381;-52
2022/12/21 00:51:34;;;;;;;53.15;27.27;;;;;;;0.83;89.48;100279.91;1686177;83;25815;-52
2022/12/21 00:54:01;;;;;;;60.55;26.57;;;;;;;0.82;89.49;100288.44;1710725;83;25497;-52
2022/12/21 00:56:29;;;;;;;53.38;25.55;;;;;;;0.83;89.51;100301.22;1710713;83;25610;-52
2022/12/21 00:58:55;;;;;;;52.03;25.23;;;;;;;0.86;89.54;100308.19;1710796;83;25624;-52
2022/12/21 01:01:30;;;;;;;56.20;23.98;;;;;;;0.87;89.46;100308.48;1710689;83;27310;-52
2022/12/21 01:03:59;;;;;;;54.20;26.73;;;;;;;0.87;89.46;100305.83;1710720;83;25585;-51
2022/12/21 01:06:30;;;;;;;58.48;26.42;;;;;;;0.90;89.31;100300.52;1710875;83;25398;-50
2022/12/21 01:08:58;;;;;;;59.08;27.87;;;;;;;0.92;89.37;100310.42;1710768;83;25667;-50
2022/12/21 01:11:27;;;;;;;56.68;26.97;;;;;;;0.93;89.21;100308.83;1710790;83;25649;-50
2022/12/21 01:13:56;;;;;;;61.28;28.83;;;;;;;0.94;89.23;100310.98;1710934;83;32986;-51
2022/12/21 01:16:31;;;;;;;55.35;26.07;;;;;;;0.96;89.25;100320.86;1710829;83;34791;-50
2022/12/21 01:19:05;;;;;;;60.40;27.62;;;;;;;0.97;89.25;100313.16;1710835;83;25557;-55
2022/12/21 01:21:33;;;;;;;55.78;27.58;;;;;;;0.98;89.11;100309.43;1686572;83;26122;-52
2022/12/21 01:24:00;;;;;;;57.73;27.95;;;;;;;0.99;89.13;100307.56;1710779;83;25574;-55
2022/12/21 01:26:28;;;;;;;57.85;28.10;;;;;;;0.99;89.08;100291.08;1710809;83;28174;-51
2022/12/21 01:28:56;;;;;;;52.65;26.40;;;;;;;1.02;89.01;100285.77;1710640;83;25439;-51
2022/12/21 01:31:23;;;;;;;54.38;27.20;;;;;;;1.02;88.77;100275.94;1710731;83;25624;-55
2022/12/21 01:33:50;;;;;;;56.05;27.30;;;;;;;1.04;88.78;100281.83;1710674;83;25692;-53
2022/12/21 01:36:18;;;;;;;55.83;27.95;;;;;;;1.06;88.81;100298.90;1710763;83;25459;-53
2022/12/21 01:38:47;;;;;;;55.75;27.48;;;;;;;1.08;88.64;100305.58;1710741;83;27928;-51
2022/12/21 01:41:19;;;;;;;64.30;30.60;;;;;;;1.11;88.59;100314.95;1710820;83;25727;-53
2022/12/21 01:43:53;;;;;;;54.58;27.25;;;;;;;1.11;88.54;100318.95;1710804;83;25499;-54
2022/12/21 01:46:40;;;;;;;59.10;29.18;;;;;;;1.13;88.30;100318.70;1710733;83;25616;-52
2022/12/21 01:49:26;;;;;;;62.43;29.67;;;;;;;1.15;88.37;100311.27;1710769;83;25656;-51
2022/12/21 01:52:06;;;;;;;57.20;28.05;;;;;;;1.16;88.18;100305.70;1710728;83;29477;-51
2022/12/21 01:54:38;;;;;;;53.52;27.75;;;;;;;1.17;88.09;100302.50;1704670;83;25501;-52
2022/12/21 01:57:09;;;;;;;52.67;27.37;;;;;;;1.20;88.01;100282.03;1703415;84;25503;-51
2022/12/21 01:59:41;;;;;;;60.73;28.62;;;;;;;1.20;88.02;100282.03;1703379;84;26168;-52
2022/12/21 02:02:13;;;;;;;60.17;28.52;;;;;;;1.21;87.93;100265.80;1703364;84;25467;-52
2022/12/21 02:04:42;;;;;;;56.20;28.20;;;;;;;1.22;87.85;100241.28;1703397;84;27355;-51
2022/12/21 02:07:08;;;;;;;54.63;27.82;;;;;;;1.22;87.90;100235.95;1703426;84;25402;-53
2022/12/21 02:09:37;;;;;;;57.20;28.62;;;;;;;1.21;87.84;100236.98;1703392;84;25559;-52
2022/12/21 02:12:08;;;;;;;54.83;28.27;;;;;;;1.20;87.75;100231.41;1703291;83;25619;-51
2022/12/21 02:14:39;;;;;;;59.05;29.00;;;;;;;1.19;87.86;100225.78;1687003;84;25658;-51
2022/12/21 02:17:37;;;;;;;62.30;29.87;;;;;;;1.18;87.91;100217.53;1687260;84;27575;-52
2022/12/21 02:20:24;;;;;;;56.35;28.10;;;;;;;1.17;87.97;100213.23;1703265;84;25391;-52
2022/12/21 02:23:28;;;;;;;55.38;27.07;;;;;;;1.17;88.05;100213.23;1702619;83;25448;-50
2022/12/21 02:26:12;;;;;;;60.03;27.13;;;;;;;1.16;88.10;100211.11;1703353;84;26330;-51
2022/12/21 02:29:05;;;;;;;66.65;29.98;;;;;;;1.16;88.17;100211.61;1702562;83;25502;-53
2022/12/21 02:31:59;;;;;;;61.40;29.10;;;;;;;1.15;88.16;100208.69;1702409;83;27330;-51
2022/12/21 02:34:45;;;;;;;63.33;29.52;;;;;;;1.13;88.21;100200.95;1703234;84;25520;-53
2022/12/21 02:37:37;;;;;;;67.65;30.00;;;;;;;1.14;88.23;100201.74;1695224;84;25554;-52
2022/12/21 02:40:45;;;;;;;68.00;29.67;;;;;;;1.13;88.20;100202.28;1703323;83;25676;-52
2022/12/21 02:46:37;;;;;;;58.63;28.85;;;;;;;1.13;88.32;100224.92;1703287;84;29469;-51
2022/12/21 02:49:14;;;;;;;58.08;28.25;;;;;;;1.14;88.29;100229.18;1702851;83;27258;-52
2022/12/21 02:51:52;;;;;;;55.78;28.40;;;;;;;1.13;88.21;100244.11;1703385;84;25615;-51
2022/12/21 02:54:20;;;;;;;59.50;28.67;;;;;;;1.14;88.20;100232.38;1705117;83;25689;-51
2022/12/21 02:56:46;;;;;;;59.60;29.90;;;;;;;1.14;88.17;100222.52;1710689;83;25467;-51
2022/12/21 02:59:17;;;;;;;61.42;30.32;;;;;;;1.15;88.14;100203.36;1686087;83;27431;-51
2022/12/21 03:02:05;;;;;;;58.73;28.90;;;;;;;1.16;88.02;100193.80;1710609;83;25404;-53
2022/12/21 03:04:56;;;;;;;57.78;28.23;;;;;;;1.17;88.02;100197.25;1710673;83;25529;-54
2022/12/21 03:07:40;;;;;;;54.27;27.62;;;;;;;1.17;87.93;100217.23;1710651;83;25587;-56
2022/12/21 03:10:39;;;;;;;60.55;28.40;;;;;;;1.19;87.83;100217.79;1710708;83;25445;-50
2022/12/21 03:13:50;;;;;;;61.63;28.52;;;;;;;1.19;87.74;100213.80;1710883;83;29501;-50
2022/12/21 03:16:27;;;;;;;60.23;28.92;;;;;;;1.19;87.69;100223.95;1710060;83;25400;-51
2022/12/21 03:19:05;;;;;;;56.42;28.10;;;;;;;1.20;87.65;100224.20;1710727;83;25458;-52
2022/12/21 03:21:51;;;;;;;56.05;25.27;;;;;;;1.22;87.65;100219.96;1710762;83;25594;-52
2022/12/21 03:24:39;;;;;;;59.50;28.15;;;;;;;1.23;87.59;100217.59;1710562;83;25591;-51
2022/12/21 03:27:19;;;;;;;55.73;27.13;;;;;;;1.24;87.55;100215.19;1710854;83;27341;-51
2022/12/21 03:30:03;;;;;;;61.15;28.85;;;;;;;1.23;87.49;100217.59;1710747;83;27157;-51
2022/12/21 03:33:03;;;;;;;55.73;26.70;;;;;;;1.25;87.45;100215.47;1709801;83;25367;-51
2022/12/21 03:35:41;;;;;;;54.70;26.68;;;;;;;1.25;87.37;100227.47;1710736;83;25627;-50
2022/12/21 03:38:14;;;;;;;55.73;27.50;;;;;;;1.25;87.25;100227.47;1652028;86;25703;-51
2022/12/21 03:40:43;;;;;;;52.48;26.00;;;;;;;1.26;87.26;100225.06;1609329;89;27375;-51
2022/12/21 03:43:21;;;;;;;52.90;26.10;;;;;;;1.27;87.24;100218.69;1608283;89;25853;-51
2022/12/21 03:45:55;;;;;;;56.68;26.87;;;;;;;1.27;87.27;100223.48;1607797;89;25676;-54
2022/12/21 03:48:33;;;;;;;52.73;26.23;;;;;;;1.28;87.07;100226.98;1602032;89;25932;-50
2022/12/21 03:51:05;;;;;;;54.25;26.77;;;;;;;1.29;87.10;100217.91;1598704;89;25472;-51
2022/12/21 03:53:45;;;;;;;49.73;27.00;;;;;;;1.29;87.08;100218.73;1600548;89;27370;-51
2022/12/21 03:56:22;;;;;;;54.60;27.77;;;;;;;1.32;86.82;100220.62;1592399;89;25671;-50
2022/12/21 03:58:50;;;;;;;51.50;27.55;;;;;;;1.31;86.81;100207.80;1555833;91;25654;-54
2022/12/21 04:01:22;;;;;;;51.95;26.05;;;;;;;1.33;86.63;100188.39;1575686;91;26466;-54
2022/12/21 04:03:54;;;;;;;54.85;25.27;;;;;;;1.33;86.75;100175.06;1575746;91;25614;-51
2022/12/21 04:06:25;;;;;;;54.35;27.10;;;;;;;1.34;86.62;100165.20;1575655;91;27357;-54
2022/12/21 04:08:55;;;;;;;57.50;27.73;;;;;;;1.33;86.63;100172.40;1575586;91;25677;-54
2022/12/21 04:14:06;;;;;;;56.73;27.67;;;;;;;1.34;86.37;100167.33;1575621;91;27862;-53
2022/12/21 04:16:33;;;;;;;55.20;25.43;;;;;;;1.35;86.43;100157.50;1610511;88;25450;-51
2022/12/21 04:21:43;;;;;;;51.83;26.45;;;;;;;1.34;86.36;100142.55;1615218;88;25639;-51
2022/12/21 04:29:39;;;;;;;56.65;27.80;;;;;;;1.34;86.19;100113.23;1615305;88;25555;-51
2022/12/21 04:32:05;;;;;;;57.80;27.10;;;;;;;1.32;86.10;100120.68;1615225;88;27406;-51
2022/12/21 04:34:31;;;;;;;55.58;26.77;;;;;;;1.31;86.08;100141.17;1615186;88;25654;-50
2022/12/21 04:39:42;;;;;;;50.33;25.48;;;;;;;1.31;86.20;100145.17;1615239;88;25618;-52
2022/12/21 04:42:08;;;;;;;57.30;26.45;;;;;;;1.31;86.08;100175.82;1615222;88;25480;-50
2022/12/21 04:44:34;;;;;;;58.02;28.25;;;;;;;1.29;86.07;100160.61;1615277;87;27586;-51
2022/12/21 04:47:00;;;;;;;61.25;28.02;;;;;;;1.28;86.02;100169.68;1615166;88;25548;-54
2022/12/21 04:49:27;;;;;;;53.90;26.27;;;;;;;1.26;85.94;100158.44;1600320;88;25658;-54
2022/12/21 04:51:53;;;;;;;60.03;27.70;;;;;;;1.24;85.88;100156.56;1615203;88;26270;-54
2022/12/21 04:54:20;;;;;;;58.70;27.40;;;;;;;1.21;85.86;100151.73;1615217;88;25476;-50
2022/12/21 04:56:46;;;;;;;56.33;27.93;;;;;;;1.18;85.89;100149.59;1615266;88;27522;-49
2022/12/21 04:59:13;;;;;;;56.73;28.45;;;;;;;1.17;85.95;100146.63;1658714;86;25526;-50
2022/12/21 05:01:39;;;;;;;59.77;28.10;;;;;;;1.15;85.97;100146.08;1636966;87;25416;-50
2022/12/21 05:04:05;;;;;;;59.60;26.70;;;;;;;1.14;86.00;100148.45;1644751;87;25652;-50
2022/12/21 05:06:33;;;;;;;60.52;29.42;;;;;;;1.14;86.07;100151.12;1703379;84;25555;-52
2022/12/21 05:08:59;;;;;;;58.83;28.42;;;;;;;1.11;85.97;100142.58;1703340;84;27414;-51
2022/12/21 05:11:25;;;;;;;55.97;27.40;;;;;;;1.11;86.06;100138.58;1703261;84;30317;-50
2022/12/21 05:13:52;;;;;;;54.35;26.48;;;;;;;1.11;86.07;100139.91;1703308;84;25425;-50
2022/12/21 05:16:24;;;;;;;58.63;27.05;;;;;;;1.11;86.06;100142.58;1687126;84;25650;-50
2022/12/21 05:18:52;;;;;;;59.55;28.32;;;;;;;1.11;86.05;100144.45;1703372;84;25549;-50
2022/12/21 05:21:22;;;;;;;55.88;29.10;;;;;;;1.10;86.04;100151.61;1703595;84;27270;-53
2022/12/21 05:23:49;;;;;;;57.50;28.17;;;;;;;1.09;86.09;100139.37;1703225;84;27269;-53
2022/12/21 05:26:17;;;;;;;55.17;27.13;;;;;;;1.10;86.08;100146.82;1687107;84;25588;-54
2022/12/21 05:28:46;;;;;;;52.73;26.30;;;;;;;1.08;86.07;100130.28;1703363;84;25727;-51
2022/12/21 05:31:16;;;;;;;60.38;28.27;;;;;;;1.06;86.01;100131.87;1703550;84;25623;-51
2022/12/21 05:33:44;;;;;;;58.48;28.05;;;;;;;1.06;86.07;100117.75;1703053;84;27377;-53
2022/12/21 05:36:15;;;;;;;57.25;26.75;;;;;;;1.05;86.07;100118.26;1703294;84;25587;-54
2022/12/21 05:38:45;;;;;;;57.45;28.05;;;;;;;1.03;86.05;100116.38;1687175;84;25582;-54
2022/12/21 05:41:15;;;;;;;60.78;28.98;;;;;;;1.03;86.09;100119.58;1703481;84;25623;-52
2022/12/21 05:43:42;;;;;;;53.80;26.68;;;;;;;1.02;86.13;100124.61;1703376;84;25619;-54
2022/12/21 05:46:12;;;;;;;60.85;28.25;;;;;;;1.00;86.18;100121.41;1703351;84;27344;-51
2022/12/21 05:48:39;;;;;;;61.37;28.20;;;;;;;1.00;86.13;100114.74;1703284;84;25404;-50
2022/12/21 05:51:09;;;;;;;55.83;28.15;;;;;;;0.98;86.15;100119.52;1703458;84;25545;-51
2022/12/21 05:53:40;;;;;;;56.37;27.17;;;;;;;0.97;86.17;100113.91;1703235;83;25685;-52
2022/12/21 05:56:08;;;;;;;57.95;29.48;;;;;;;0.96;86.20;100121.64;1703421;84;25607;-51
2022/12/21 05:58:37;;;;;;;59.93;29.00;;;;;;;0.97;86.25;100112.06;1707680;83;27995;-50
2022/12/21 06:01:07;;;;;;;61.33;28.47;;;;;;;0.96;86.22;100111.77;1710741;83;25526;-50
2022/12/21 06:03:36;;;;;;;63.60;28.77;;;;;;;0.98;86.32;100114.98;1710733;83;25644;-51
2022/12/21 06:06:08;;;;;;;55.00;26.87;;;;;;;0.97;86.40;100141.37;1710671;83;26289;-51
2022/12/21 06:08:36;;;;;;;58.00;27.52;;;;;;;1.00;86.37;100156.03;1709121;83;25630;-51
2022/12/21 06:11:12;;;;;;;60.67;28.25;;;;;;;1.02;86.33;100157.91;1710843;83;27387;-52
2022/12/21 06:13:39;;;;;;;54.67;25.85;;;;;;;1.03;86.30;100164.86;1709879;83;25435;-51
2022/12/21 06:16:11;;;;;;;56.98;26.77;;;;;;;1.05;86.26;100168.87;1685988;83;25598;-52
2022/12/21 06:18:41;;;;;;;53.20;26.87;;;;;;;1.05;86.36;100168.87;1710709;83;25664;-51
2022/12/21 06:21:11;;;;;;;53.13;26.05;;;;;;;1.06;86.25;100173.16;1710738;83;25629;-51
2022/12/21 06:23:41;;;;;;;56.77;28.02;;;;;;;1.07;86.22;100173.95;1710730;83;27314;-50
2022/12/21 06:26:11;;;;;;;52.65;25.23;;;;;;;1.07;86.20;100173.45;1710646;83;25468;-51
2022/12/21 06:28:39;;;;;;;56.60;26.27;;;;;;;1.08;86.27;100179.03;1710823;83;25421;-50
2022/12/21 06:31:11;;;;;;;62.78;27.30;;;;;;;1.09;86.13;100167.84;1710711;83;25587;-52
2022/12/21 06:33:40;;;;;;;61.40;26.93;;;;;;;1.11;86.10;100179.08;1710760;83;25555;-51
2022/12/21 06:36:10;;;;;;;59.75;28.57;;;;;;;1.11;86.07;100175.09;1710813;83;27862;-52
2022/12/21 06:38:39;;;;;;;52.25;26.82;;;;;;;1.12;85.98;100170.02;1710612;83;25618;-54
2022/12/21 06:41:10;;;;;;;55.00;28.73;;;;;;;1.12;86.06;100163.36;1710884;83;25517;-52
2022/12/21 06:43:40;;;;;;;51.33;24.75;;;;;;;1.11;85.92;100167.89;1710673;83;25622;-52
2022/12/21 06:46:15;;;;;;;53.45;26.68;;;;;;;1.13;85.93;100166.31;1710731;83;25610;-52
2022/12/21 06:48:43;;;;;;;54.35;27.07;;;;;;;1.13;86.01;100165.52;1709669;83;27362;-54
2022/12/21 06:51:18;;;;;;;55.08;26.48;;;;;;;1.13;86.00;100166.84;1710557;83;25463;-52
2022/12/21 06:53:48;;;;;;;54.83;25.08;;;;;;;1.15;85.91;100172.19;1685488;83;25571;-54
2022/12/21 06:56:19;;;;;;;57.20;28.32;;;;;;;1.16;85.85;100170.32;1710698;83;25612;-54
2022/12/21 06:58:54;;;;;;;52.10;25.30;;;;;;;1.15;85.78;100168.73;1706831;83;25448;-55
2022/12/21 07:01:26;;;;;;;54.67;26.35;;;;;;;1.16;85.77;100186.30;1703297;84;27393;-55
2022/12/21 07:03:54;;;;;;;49.27;25.32;;;;;;;1.17;85.88;100177.27;1703105;83;25425;-55
2022/12/21 07:06:25;;;;;;;55.43;25.48;;;;;;;1.16;85.82;100169.81;1703318;84;25559;-55
2022/12/21 07:08:54;;;;;;;56.55;26.23;;;;;;;1.17;85.86;100173.27;1703311;84;25957;-54
2022/12/21 07:11:26;;;;;;;54.40;26.65;;;;;;;1.17;85.83;100168.73;1703485;84;32670;-55
2022/12/21 07:13:54;;;;;;;50.03;25.17;;;;;;;1.17;85.71;100167.41;1703292;84;27394;-54
2022/12/21 07:16:23;;;;;;;52.58;25.72;;;;;;;1.17;85.76;100162.08;1703188;84;25577;-51
2022/12/21 07:18:51;;;;;;;53.73;27.07;;;;;;;1.19;85.81;100166.66;1703478;84;25550;-52
2022/12/21 07:21:21;;;;;;;54.23;25.65;;;;;;;1.20;85.79;100163.45;1703265;84;26223;-52
2022/12/21 07:23:49;;;;;;;53.55;25.37;;;;;;;1.21;85.86;100163.72;1703334;84;25463;-52
2022/12/21 07:26:20;;;;;;;51.40;24.70;;;;;;;1.20;85.71;100155.47;1703323;84;28107;-55
2022/12/21 07:28:48;;;;;;;56.50;25.95;;;;;;;1.22;85.71;100150.69;1703294;84;25557;-53
2022/12/21 07:31:19;;;;;;;48.87;24.75;;;;;;;1.22;85.79;100138.16;1703328;84;25614;-52
2022/12/21 07:33:46;;;;;;;48.58;24.98;;;;;;;1.24;85.66;100133.91;1702850;83;29014;-54
2022/12/21 07:36:15;;;;;;;48.78;24.35;;;;;;;1.24;85.54;100134.73;1703291;84;25381;-51
2022/12/21 07:38:43;;;;;;;52.60;25.50;;;;;;;1.27;85.51;100136.08;1703477;84;27337;-53
2022/12/21 07:41:14;;;;;;;53.52;26.52;;;;;;;1.27;85.57;100144.87;1703224;84;25891;-54
2022/12/21 07:43:43;;;;;;;51.88;25.15;;;;;;;1.29;85.69;100125.97;1703282;84;25698;-52
2022/12/21 07:46:10;;;;;;;53.13;25.55;;;;;;;1.33;85.47;100134.27;1703274;84;25613;-53
2022/12/21 07:48:38;;;;;;;46.30;23.47;;;;;;;1.34;85.62;100142.55;1703280;84;25405;-51
2022/12/21 07:51:06;;;;;;;54.67;25.77;;;;;;;1.36;85.58;100140.43;1703290;84;27309;-50
2022/12/21 07:53:34;;;;;;;48.87;24.65;;;;;;;1.37;85.51;100142.05;1703197;84;25390;-52
2022/12/21 07:56:18;;;;;;;52.90;24.87;;;;;;;1.39;85.56;100134.06;1703276;84;25645;-51
2022/12/21 07:58:46;;;;;;;50.85;25.30;;;;;;;1.41;85.35;100141.28;1703485;83;25855;-50
2022/12/21 08:01:16;;;;;;;52.27;24.98;;;;;;;1.41;85.33;100137.28;1703276;84;25403;-50
2022/12/21 08:03:47;;;;;;;55.12;26.50;;;;;;;1.44;85.26;100139.45;1703317;84;27956;-50
2022/12/21 08:06:16;;;;;;;46.75;25.70;;;;;;;1.45;85.26;100135.73;1703191;84;25575;-49
2022/12/21 08:08:43;;;;;;;48.65;25.27;;;;;;;1.47;85.32;100134.95;1703372;84;32305;-50
2022/12/21 08:11:17;;;;;;;44.88;24.35;;;;;;;1.52;85.09;100134.73;1703217;84;26124;-52
2022/12/21 08:13:47;;;;;;;51.48;25.30;;;;;;;1.52;85.07;100134.73;1703529;84;25569;-50
2022/12/21 08:16:18;;;;;;;49.98;24.63;;;;;;;1.53;85.04;100128.33;1703487;84;27960;-53
2022/12/21 08:18:47;;;;;;;54.48;25.35;;;;;;;1.56;85.24;100139.30;1703418;84;25586;-50
2022/12/21 08:21:16;;;;;;;52.67;26.68;;;;;;;1.57;85.08;100128.13;1703586;84;25609;-52
2022/12/21 08:23:43;;;;;;;49.33;24.43;;;;;;;1.59;85.09;100131.33;1703696;84;25670;-52
2022/12/21 08:26:11;;;;;;;46.35;23.98;;;;;;;1.61;85.15;100129.21;1703474;83;25552;-50
2022/12/21 08:28:38;;;;;;;48.63;24.90;;;;;;;1.62;84.70;100116.96;1703466;84;27325;-50
2022/12/21 08:31:09;;;;;;;52.55;24.30;;;;;;;1.65;84.91;100116.97;1703401;84;25625;-51
2022/12/21 08:33:40;;;;;;;56.25;25.15;;;;;;;1.67;84.78;100113.01;1703356;84;25476;-52
2022/12/21 08:36:14;;;;;;;50.17;23.62;;;;;;;1.71;84.76;100119.97;1687081;84;25934;-52
2022/12/21 08:38:41;;;;;;;47.33;24.30;;;;;;;1.75;84.79;100112.26;1703234;83;25598;-51
2022/12/21 08:41:08;;;;;;;46.98;24.43;;;;;;;1.78;84.81;100113.88;1702634;84;27433;-50
2022/12/21 08:43:36;;;;;;;53.63;26.02;;;;;;;1.81;84.69;100105.92;1703122;84;25634;-48
2022/12/21 08:46:07;;;;;;;48.63;23.73;;;;;;;1.83;84.65;100089.13;1703661;84;25561;-50
2022/12/21 08:48:35;;;;;;;47.78;24.60;;;;;;;1.84;84.41;100085.41;1703413;84;26197;-49
2022/12/21 08:51:07;;;;;;;47.05;24.98;;;;;;;1.88;84.25;100090.50;1703403;84;25504;-51
2022/12/21 08:53:36;;;;;;;52.05;25.88;;;;;;;1.91;84.53;100099.33;1703431;84;27975;-51
2022/12/21 08:56:05;;;;;;;56.80;25.25;;;;;;;1.95;84.45;100099.61;1703472;84;27254;-51
2022/12/21 08:58:33;;;;;;;54.13;25.87;;;;;;;1.97;84.30;100098.28;1704105;83;25580;-51
2022/12/21 09:01:02;;;;;;;41.50;22.27;;;;;;;1.98;84.00;100099.11;1711019;83;25684;-52
2022/12/21 09:03:28;;;;;;;53.20;24.93;;;;;;;1.97;83.65;100094.28;1711009;83;25602;-51
2022/12/21 09:05:59;;;;;;;43.60;22.00;;;;;;;1.99;83.85;100103.36;1710691;83;27316;-52
2022/12/21 09:08:26;;;;;;;46.55;22.05;;;;;;;2.00;83.74;100103.11;1710731;83;25408;-51
2022/12/21 09:11:04;;;;;;;49.48;24.55;;;;;;;2.04;83.93;100102.89;1710733;83;25584;-51
2022/12/21 09:13:31;;;;;;;50.98;25.20;;;;;;;2.08;83.69;100107.19;1710297;83;25673;-51
2022/12/21 09:15:57;;;;;;;51.35;24.92;;;;;;;2.10;83.76;100093.59;1710845;83;25546;-53
2022/12/21 09:18:25;;;;;;;47.30;23.45;;;;;;;2.18;83.68;100086.41;1710776;83;29490;-54
2022/12/21 09:20:54;;;;;;;47.65;24.75;;;;;;;2.19;83.34;100083.48;1710731;83;25464;-54
2022/12/21 09:23:23;;;;;;;47.88;24.75;;;;;;;2.22;83.68;100078.97;1710902;83;25548;-54
2022/12/21 09:25:50;;;;;;;48.50;24.80;;;;;;;2.27;83.40;100066.19;1710551;83;25615;-54
2022/12/21 09:28:16;;;;;;;44.83;22.93;;;;;;;2.31;83.70;100056.59;1710811;83;25471;-51
2022/12/21 09:30:42;;;;;;;47.00;23.57;;;;;;;2.37;82.94;100073.45;1710860;83;27350;-53
2022/12/21 09:33:08;;;;;;;48.85;24.37;;;;;;;2.39;83.02;100069.45;1710649;83;25504;-50
2022/12/21 09:35:39;;;;;;;46.55;23.12;;;;;;;2.42;82.82;100072.14;1686332;83;25484;-53
2022/12/21 09:38:07;;;;;;;52.45;25.37;;;;;;;2.45;82.55;100072.94;1710814;83;26183;-51
2022/12/21 09:40:35;;;;;;;45.48;22.55;;;;;;;2.47;82.79;100078.84;1710727;83;25570;-51
2022/12/21 09:43:27;;;;;;;46.20;23.92;;;;;;;2.48;82.04;100076.42;1686502;83;28115;-51
2022/12/21 09:46:08;;;;;;;45.65;23.47;;;;;;;2.50;82.21;100074.84;1710226;83;25764;-52
2022/12/21 09:48:52;;;;;;;48.40;23.65;;;;;;;2.50;82.30;100063.61;1686551;83;25650;-55
2022/12/21 09:51:26;;;;;;;46.40;23.27;;;;;;;2.49;82.08;100052.68;1710708;83;25632;-55
2022/12/21 09:54:07;;;;;;;46.70;23.07;;;;;;;2.53;82.58;100055.09;1710809;83;25411;-54
2022/12/21 09:56:39;;;;;;;43.48;23.50;;;;;;;2.64;82.50;100064.47;1710715;83;27398;-55
2022/12/21 09:59:13;;;;;;;49.73;26.97;;;;;;;2.73;82.02;100061.59;1686297;83;25740;-52
2022/12/21 10:01:48;;;;;;;96.20;86.77;;;;;;;2.73;82.26;100049.56;1710185;83;25405;-50
2022/12/21 10:04:22;;;;;;;93.80;83.63;;;;;;;2.79;82.21;100058.67;1709285;83;25830;-53
2022/12/21 10:07:18;;;;;;;93.70;84.10;;;;;;;2.84;81.62;100055.19;1710674;83;25783;-51
2022/12/21 10:10:04;;;;;;;80.40;71.53;;;;;;;2.87;81.92;100044.52;1710330;83;29544;-53
2022/12/21 10:12:56;;;;;;;44.83;23.18;;;;;;;2.99;81.65;100047.75;1707977;83;25765;-54
2022/12/21 10:15:53;;;;;;;46.33;23.85;;;;;;;2.98;80.87;100057.64;1710258;83;25547;-54
2022/12/21 10:18:46;;;;;;;43.87;21.90;;;;;;;2.93;80.72;100056.30;1710604;83;26252;-51
2022/12/21 10:21:52;;;;;;;48.52;24.18;;;;;;;2.91;81.46;100051.77;1710806;83;25451;-52
2022/12/21 10:24:26;;;;;;;45.90;23.70;;;;;;;2.97;81.44;100061.91;1710680;83;27344;-52
2022/12/21 10:27:02;;;;;;;44.83;23.35;;;;;;;3.08;81.88;100058.72;1710610;83;25412;-52
2022/12/21 10:29:34;;;;;;;47.80;23.42;;;;;;;3.30;82.03;100051.30;1708374;83;25446;-51
2022/12/21 10:32:02;;;;;;;44.08;22.15;;;;;;;3.53;82.33;100052.62;1686263;83;27573;-55
2022/12/21 10:34:43;;;;;;;45.88;24.25;;;;;;;3.67;81.56;100048.87;1710674;83;25556;-50
2022/12/21 10:37:16;;;;;;;46.98;23.77;;;;;;;3.78;80.95;100051.53;1709844;83;27993;-51
2022/12/21 10:39:48;;;;;;;45.00;23.73;;;;;;;3.90;80.68;100046.72;1710666;83;25471;-51
2022/12/21 10:42:37;;;;;;;45.30;23.55;;;;;;;3.91;79.78;100053.11;1710757;83;25548;-54
2022/12/21 10:45:12;;;;;;;46.20;23.50;;;;;;;3.86;79.38;100053.13;1710669;83;26203;-51
2022/12/21 10:47:40;;;;;;;45.75;24.10;;;;;;;3.83;79.36;100051.53;1710741;83;25402;-53
2022/12/21 10:50:21;;;;;;;43.80;22.52;;;;;;;3.79;79.10;100045.91;1710675;83;27382;-55
2022/12/21 10:52:54;;;;;;;47.00;23.87;;;;;;;3.81;79.64;100046.44;1686240;83;25759;-54
2022/12/21 10:55:33;;;;;;;45.38;22.62;;;;;;;4.02;80.08;100041.05;1710708;83;25387;-53
2022/12/21 10:58:13;;;;;;;;;;;;;;;4.39;80.03;100035.86;1713215;83;26260;-54
2022/12/21 11:01:03;;;;;;;43.08;21.45;;;;;;;4.73;79.89;100039.99;1706424;83;25427;-51
2022/12/21 11:03:37;;;;;;;39.83;21.33;;;;;;;4.88;79.21;100036.98;1703304;83;27223;-51
2022/12/21 11:06:18;;;;;;;46.28;23.10;;;;;;;4.80;77.79;100036.50;1703223;84;25287;-53
2022/12/21 11:08:52;;;;;;;42.00;22.00;;;;;;;4.66;77.36;100038.95;1703335;84;25408;-50
2022/12/21 11:11:36;;;;;;;47.08;21.87;;;;;;;4.54;77.45;100030.45;1686895;84;25807;-50
2022/12/21 11:14:19;;;;;;;43.23;22.62;;;;;;;4.48;77.41;100032.91;1687110;84;25571;-51
2022/12/21 11:16:47;;;;;;;46.40;22.87;;;;;;;4.37;77.24;100033.45;1703327;84;27296;-50
2022/12/21 11:19:18;;;;;;;39.83;22.27;;;;;;;4.27;77.08;100035.66;1703182;84;27124;-50
2022/12/21 11:21:52;;;;;;;50.33;24.65;;;;;;;4.20;77.38;100035.67;1702997;83;25625;-49
2022/12/21 11:24:36;;;;;;;41.35;22.25;;;;;;;4.30;78.86;100028.39;1703273;84;25710;-50
2022/12/21 11:27:14;;;;;;;41.60;22.17;;;;;;;4.43;78.46;100028.36;1703120;83;25407;-51
2022/12/21 11:30:08;;;;;;;44.25;22.60;;;;;;;4.50;78.25;100028.06;1703282;84;27341;-49
2022/12/21 11:32:40;;;;;;;40.63;21.77;;;;;;;4.52;78.03;100029.13;1701411;83;25823;-50
2022/12/21 11:35:20;;;;;;;45.20;22.93;;;;;;;4.49;77.64;100022.43;1702951;83;25550;-48
2022/12/21 11:37:53;;;;;;;;;;;;;;;4.48;77.50;100032.35;1705869;84;25595;-50
2022/12/21 11:40:25;;;;;;;39.60;21.60;;;;;;;4.44;76.45;100029.97;1703391;84;25478;-50
2022/12/21 11:43:02;;;;;;;45.85;22.42;;;;;;;4.39;77.26;100023.81;1703351;84;27406;-51
2022/12/21 11:46:07;;;;;;;46.45;24.35;;;;;;;4.34;77.13;100029.19;1703126;84;25554;-51
2022/12/21 11:48:54;;;;;;;43.50;21.20;;;;;;;4.27;76.93;100027.63;1703341;83;25558;-51
2022/12/21 11:52:16;;;;;;;40.92;22.58;;;;;;;4.17;76.41;100020.14;1703454;84;25673;-51
2022/12/21 11:55:00;;;;;;;42.10;22.10;;;;;;;4.10;77.16;100008.38;1686620;84;25591;-48
2022/12/21 11:57:49;;;;;;;44.08;22.13;;;;;;;4.02;77.03;100008.94;1702924;83;27360;-49
2022/12/21 12:00:24;;;;;;;41.90;21.40;;;;;;;3.95;77.17;100008.42;1703359;84;25600;-48
2022/12/21 12:03:25;;;;;;;44.38;20.88;;;;;;;3.87;77.45;100007.91;1687509;83;25607;-50